Time;durP1;ratioP1;P1;durP2;ratioP2;P2;SDS_P1;SDS_P2;PMS_P1;PMS_P2;Temp;Humidity;BMP_temperature;BMP_pressure;BME280_temperature;BME280_humidity;BME280_pressure;Samples;Min_cycle;Max_cycle;Signal;HPM_P1;HPM_P2
2023/05/02 00:00:35;;;;;;;6.40;3.33;;;14.50;99.90;;;;;;10136859;28;20025;-61
2023/05/02 00:05:26;;;;;;;4.55;3.22;;;14.50;99.90;;;;;;10129755;28;20040;-63
2023/05/02 00:10:17;;;;;;;6.15;3.72;;;14.40;99.90;;;;;;10158439;28;20050;-60
2023/05/02 00:15:08;;;;;;;5.50;3.67;;;14.40;99.90;;;;;;10167003;28;20028;-60
2023/05/02 00:19:59;;;;;;;4.78;3.58;;;14.40;99.90;;;;;;10149969;28;20082;-60
2023/05/02 00:24:50;;;;;;;7.65;4.32;;;14.30;99.90;;;;;;10139702;28;20052;-60
2023/05/02 00:29:41;;;;;;;6.65;4.32;;;14.30;99.90;;;;;;10122604;28;20094;-60
2023/05/02 00:34:32;;;;;;;6.75;4.07;;;14.20;99.90;;;;;;10154984;28;20032;-60
2023/05/02 00:39:23;;;;;;;6.10;3.78;;;14.10;99.90;;;;;;10134380;28;20079;-62
2023/05/02 00:44:13;;;;;;;6.40;3.65;;;14.10;99.90;;;;;;10145057;28;20521;-60
2023/05/02 00:49:04;;;;;;;7.03;3.97;;;14.00;99.90;;;;;;10149098;28;20051;-60
2023/05/02 00:53:56;;;;;;;6.03;4.03;;;13.90;99.90;;;;;;10166823;28;20121;-60
2023/05/02 00:58:47;;;;;;;7.18;4.57;;;13.80;99.90;;;;;;10157108;28;20020;-60
2023/05/02 01:04:02;;;;;;;8.55;4.82;;;13.80;99.90;;;;;;10142319;28;20040;-61
2023/05/02 01:09:09;;;;;;;5.68;4.43;;;13.70;99.90;;;;;;10141442;28;20036;-60
2023/05/02 01:14:04;;;;;;;6.43;4.90;;;13.70;99.90;;;;;;10142220;28;20037;-59
2023/05/02 01:18:56;;;;;;;7.73;4.97;;;13.70;99.90;;;;;;10123634;28;20480;-61
2023/05/02 01:24:13;;;;;;;6.15;4.45;;;13.60;99.90;;;;;;10141281;28;20037;-60
2023/05/02 01:29:08;;;;;;;6.05;4.57;;;13.70;99.90;;;;;;10140844;28;20090;-60
2023/05/02 01:34:01;;;;;;;7.40;4.25;;;13.70;99.90;;;;;;10138615;28;20040;-61
2023/05/02 01:38:54;;;;;;;6.05;4.18;;;13.80;99.90;;;;;;10141466;28;20061;-60
2023/05/02 01:43:47;;;;;;;6.13;4.35;;;13.70;99.90;;;;;;10159363;28;20063;-59
2023/05/02 01:48:39;;;;;;;5.80;4.03;;;13.70;99.90;;;;;;10170778;28;20044;-60
2023/05/02 01:53:33;;;;;;;7.35;4.55;;;13.80;99.90;;;;;;10143543;28;20508;-60
2023/05/02 01:58:26;;;;;;;6.70;4.32;;;13.80;99.90;;;;;;10150428;28;20516;-60
2023/05/02 02:03:17;;;;;;;8.00;4.20;;;13.80;99.90;;;;;;10139503;28;20072;-60
2023/05/02 02:08:08;;;;;;;8.13;4.70;;;13.70;99.90;;;;;;10144376;28;20171;-63
2023/05/02 02:13:24;;;;;;;9.77;4.72;;;13.60;99.90;;;;;;10168727;28;20138;-64
2023/05/02 02:18:25;;;;;;;6.70;4.47;;;13.60;99.90;;;;;;10139256;28;20013;-63
2023/05/02 02:23:19;;;;;;;7.55;4.53;;;13.60;99.90;;;;;;10148499;28;20052;-63
2023/05/02 02:28:10;;;;;;;8.05;5.30;;;13.80;99.90;;;;;;10121318;28;20176;-62
2023/05/02 02:33:01;;;;;;;6.70;4.63;;;13.60;99.90;;;;;;10126602;28;20077;-62
2023/05/02 02:38:08;;;;;;;6.88;4.65;;;13.60;99.90;;;;;;10134354;28;20032;-60
2023/05/02 02:43:24;;;;;;;6.97;5.03;;;13.70;99.90;;;;;;10143669;28;20028;-64
2023/05/02 02:48:38;;;;;;;7.05;4.55;;;13.70;99.90;;;;;;10135295;28;20045;-63
2023/05/02 02:53:38;;;;;;;9.40;4.72;;;13.70;99.90;;;;;;10138038;28;20040;-60
2023/05/02 02:58:56;;;;;;;6.45;4.63;;;13.50;99.90;;;;;;10138642;28;20024;-61
2023/05/02 03:03:48;;;;;;;6.07;4.43;;;13.50;99.90;;;;;;10140064;28;20064;-65
2023/05/02 03:08:40;;;;;;;6.82;4.82;;;13.30;99.90;;;;;;10144162;28;20327;-65
2023/05/02 03:13:30;;;;;;;6.38;4.78;;;13.20;99.90;;;;;;10167437;28;20382;-62
2023/05/02 03:18:21;;;;;;;7.70;5.32;;;13.10;99.90;;;;;;10137926;28;20044;-64
2023/05/02 03:23:11;;;;;;;9.85;5.78;;;13.20;99.90;;;;;;10138070;28;20075;-60
2023/05/02 03:28:02;;;;;;;7.57;4.95;;;13.10;99.90;;;;;;10137497;28;20027;-62
2023/05/02 03:32:53;;;;;;;8.35;5.25;;;13.00;99.90;;;;;;10138437;28;20513;-60
2023/05/02 03:37:44;;;;;;;8.07;5.32;;;12.90;99.90;;;;;;10134562;28;20067;-60
2023/05/02 03:42:40;;;;;;;8.18;4.97;;;12.90;99.90;;;;;;10143674;28;20175;-60
2023/05/02 03:47:30;;;;;;;6.50;4.82;;;12.90;99.90;;;;;;10163462;28;20032;-60
2023/05/02 03:52:22;;;;;;;8.30;5.80;;;12.90;99.90;;;;;;10155480;28;20048;-60
2023/05/02 03:57:12;;;;;;;8.32;5.28;;;12.90;99.90;;;;;;10144791;28;20016;-61
2023/05/02 04:02:03;;;;;;;7.78;5.60;;;12.90;99.90;;;;;;10134850;28;20040;-61
2023/05/02 04:06:53;;;;;;;7.57;5.15;;;12.80;99.90;;;;;;10144522;28;20267;-61
2023/05/02 04:11:44;;;;;;;10.98;6.28;;;12.70;99.90;;;;;;10163088;28;20023;-60
2023/05/02 04:16:35;;;;;;;8.15;5.68;;;12.70;99.90;;;;;;10145200;28;20502;-59
2023/05/02 04:21:26;;;;;;;11.68;5.85;;;12.80;99.90;;;;;;10143649;28;20042;-60
2023/05/02 04:26:17;;;;;;;9.20;6.57;;;12.70;99.90;;;;;;10143527;28;20127;-59
2023/05/02 04:31:07;;;;;;;10.50;7.18;;;12.60;99.90;;;;;;10148371;28;20107;-62
2023/05/02 04:35:58;;;;;;;10.82;6.05;;;12.70;99.90;;;;;;10154341;28;20048;-61
2023/05/02 04:40:51;;;;;;;9.93;6.50;;;12.60;99.90;;;;;;10143565;28;20696;-60
2023/05/02 04:45:42;;;;;;;13.45;7.55;;;12.50;99.90;;;;;;10156366;28;20492;-63
2023/05/02 04:50:33;;;;;;;11.25;7.47;;;12.70;99.90;;;;;;10151192;28;20044;-65
2023/05/02 04:55:24;;;;;;;11.52;6.68;;;12.70;99.90;;;;;;10147306;28;20398;-61
2023/05/02 05:00:14;;;;;;;13.32;8.10;;;12.70;99.90;;;;;;10146598;28;20046;-64
2023/05/02 05:05:05;;;;;;;13.18;8.27;;;12.80;99.90;;;;;;10136095;28;20570;-62
2023/05/02 05:09:56;;;;;;;13.00;7.50;;;12.90;99.90;;;;;;10132861;28;20032;-65
2023/05/02 05:14:47;;;;;;;12.68;8.68;;;13.00;99.90;;;;;;10146221;28;20161;-64
2023/05/02 05:19:37;;;;;;;12.10;8.38;;;13.10;99.90;;;;;;10140369;28;20452;-61
2023/05/02 05:24:28;;;;;;;13.50;7.45;;;13.10;99.90;;;;;;10145090;28;20039;-60
2023/05/02 05:29:18;;;;;;;15.80;9.82;;;13.10;99.90;;;;;;10133030;28;20050;-60
2023/05/02 05:34:09;;;;;;;17.48;8.10;;;13.10;99.90;;;;;;10156577;28;20406;-59
2023/05/02 05:39:00;;;;;;;17.48;9.27;;;13.10;99.90;;;;;;10145154;28;20116;-64
2023/05/02 05:43:50;;;;;;;16.95;8.98;;;13.20;99.90;;;;;;10157394;28;20525;-60
2023/05/02 05:48:41;;;;;;;16.90;8.25;;;13.20;99.90;;;;;;10165908;28;20050;-61
2023/05/02 05:53:32;;;;;;;15.38;9.63;;;13.30;99.90;;;;;;10163095;28;20063;-60
2023/05/02 05:58:23;;;;;;;16.13;9.38;;;13.30;99.90;;;;;;10140176;28;20036;-59
2023/05/02 06:03:14;;;;;;;18.30;9.40;;;13.20;99.90;;;;;;10155072;28;20036;-61
2023/05/02 06:08:04;;;;;;;14.85;9.38;;;13.40;99.90;;;;;;10161862;28;20036;-64
2023/05/02 06:12:55;;;;;;;15.60;9.23;;;13.50;99.90;;;;;;10139349;28;20028;-61
2023/05/02 06:17:45;;;;;;;21.77;11.32;;;13.60;99.90;;;;;;10138559;28;20047;-62
2023/05/02 06:22:36;;;;;;;13.88;9.30;;;13.50;99.90;;;;;;10127046;28;20139;-61
2023/05/02 06:27:27;;;;;;;18.13;10.05;;;13.50;99.90;;;;;;10118305;28;20059;-61
2023/05/02 06:32:17;;;;;;;17.73;9.80;;;13.80;99.90;;;;;;10112934;28;20029;-60
2023/05/02 06:37:08;;;;;;;17.00;9.88;;;13.80;99.90;;;;;;10119756;28;20115;-60
2023/05/02 06:41:59;;;;;;;15.30;9.85;;;13.90;99.90;;;;;;10126150;28;20562;-62
2023/05/02 06:46:49;;;;;;;13.05;9.30;;;14.10;99.90;;;;;;10129263;28;20037;-61
2023/05/02 06:51:40;;;;;;;16.35;10.52;;;14.10;99.90;;;;;;10129302;28;20040;-61
2023/05/02 06:56:31;;;;;;;12.80;8.85;;;14.10;99.90;;;;;;10138040;28;20043;-60
2023/05/02 07:01:21;;;;;;;17.25;11.10;;;14.20;99.90;;;;;;10138098;28;20034;-61
2023/05/02 07:06:12;;;;;;;14.02;8.85;;;14.30;99.90;;;;;;10137560;28;20128;-62
2023/05/02 07:11:03;;;;;;;18.58;12.57;;;14.40;99.90;;;;;;10143531;28;20120;-62
2023/05/02 07:15:54;;;;;;;18.85;11.35;;;14.50;99.90;;;;;;10158285;28;20123;-59
2023/05/02 07:20:45;;;;;;;16.33;10.45;;;14.50;99.90;;;;;;10147199;28;20119;-61
2023/05/02 07:25:36;;;;;;;15.20;10.55;;;14.60;99.90;;;;;;10168464;28;20040;-61
2023/05/02 07:30:26;;;;;;;17.92;10.50;;;14.60;99.90;;;;;;10146374;28;20385;-63
2023/05/02 07:35:17;;;;;;;18.92;10.95;;;14.50;99.90;;;;;;10137913;28;20028;-62
2023/05/02 07:40:08;;;;;;;17.67;11.55;;;14.60;99.90;;;;;;10141587;28;20024;-62
2023/05/02 07:44:59;;;;;;;18.60;10.70;;;14.70;99.90;;;;;;10141294;28;20048;-61
2023/05/02 07:49:51;;;;;;;19.40;11.30;;;14.70;99.90;;;;;;10128494;28;20418;-63
2023/05/02 07:54:41;;;;;;;17.88;9.70;;;14.50;99.90;;;;;;10152543;28;20040;-64
2023/05/02 07:59:32;;;;;;;16.45;10.48;;;14.60;99.90;;;;;;10153605;28;20394;-62
2023/05/02 08:04:22;;;;;;;16.65;10.90;;;14.70;99.90;;;;;;10139108;28;20479;-64
2023/05/02 08:09:13;;;;;;;17.35;11.73;;;14.70;99.90;;;;;;10137854;28;20028;-63
2023/05/02 08:14:04;;;;;;;16.10;9.55;;;14.70;99.90;;;;;;10137684;28;20276;-63
2023/05/02 08:18:54;;;;;;;17.08;9.93;;;14.70;99.90;;;;;;10133722;28;20525;-62
2023/05/02 08:23:45;;;;;;;16.60;11.00;;;14.50;99.90;;;;;;10142809;28;20041;-63
2023/05/02 08:28:36;;;;;;;18.23;10.77;;;14.70;99.90;;;;;;10111017;28;20017;-62
2023/05/02 08:33:26;;;;;;;16.75;10.00;;;14.80;99.90;;;;;;10135367;28;20406;-65
2023/05/02 08:38:17;;;;;;;16.25;9.93;;;14.90;99.90;;;;;;10140398;28;20067;-66
2023/05/02 08:43:09;;;;;;;17.80;10.35;;;15.00;99.90;;;;;;10169698;28;20038;-65
2023/05/02 08:48:00;;;;;;;15.13;9.23;;;15.10;99.90;;;;;;10163953;28;20045;-68
2023/05/02 08:52:51;;;;;;;15.02;10.23;;;15.30;99.90;;;;;;10157634;28;20013;-63
2023/05/02 08:57:43;;;;;;;15.57;9.35;;;15.30;99.90;;;;;;10141897;28;20025;-66
2023/05/02 09:02:59;;;;;;;20.17;11.02;;;15.40;99.90;;;;;;10129321;28;20067;-63
2023/05/02 09:07:51;;;;;;;14.20;9.98;;;15.80;99.90;;;;;;10131948;28;20028;-64
2023/05/02 09:12:42;;;;;;;16.50;10.13;;;15.90;99.90;;;;;;10131259;28;20463;-65
2023/05/02 09:17:43;;;;;;;15.80;9.18;;;16.10;99.90;;;;;;10130367;28;20043;-63
2023/05/02 09:22:34;;;;;;;15.98;9.98;;;16.30;99.90;;;;;;10134950;28;20101;-63
2023/05/02 09:27:26;;;;;;;20.55;10.60;;;16.50;99.90;;;;;;10132981;28;20033;-63
2023/05/02 09:32:16;;;;;;;16.80;10.25;;;16.70;99.90;;;;;;10125858;28;20130;-64
2023/05/02 09:37:07;;;;;;;17.00;10.48;;;16.80;99.90;;;;;;10137369;28;20037;-64
2023/05/02 09:41:58;;;;;;;16.27;9.35;;;16.40;99.90;;;;;;10143322;28;20043;-62
2023/05/02 09:46:54;;;;;;;17.23;10.43;;;16.40;99.90;;;;;;10172859;28;20033;-62
2023/05/02 09:51:48;;;;;;;16.95;10.60;;;16.70;99.90;;;;;;10163714;28;20032;-62
2023/05/02 09:56:55;;;;;;;19.38;12.10;;;17.00;99.90;;;;;;10141394;28;20031;-63
2023/05/02 10:01:57;;;;;;;15.77;9.75;;;17.10;99.90;;;;;;10161387;28;20043;-60
2023/05/02 10:06:51;;;;;;;17.95;10.23;;;17.10;99.90;;;;;;10136041;28;20063;-63
2023/05/02 10:11:42;;;;;;;13.88;10.77;;;17.00;99.90;;;;;;10125593;28;20036;-62
2023/05/02 10:16:37;;;;;;;18.92;10.93;;;17.00;99.90;;;;;;10127067;28;20024;-66
2023/05/02 10:21:28;;;;;;;16.58;10.55;;;17.40;99.90;;;;;;10152222;28;20021;-65
2023/05/02 10:26:22;;;;;;;16.23;10.13;;;17.30;99.90;;;;;;10160852;28;20043;-64
2023/05/02 10:31:14;;;;;;;17.98;11.30;;;17.40;99.90;;;;;;10132645;28;20389;-66
2023/05/02 10:36:13;;;;;;;17.83;9.98;;;17.70;99.90;;;;;;10144166;28;20039;-66
2023/05/02 10:41:11;;;;;;;17.80;11.80;;;17.70;99.90;;;;;;10135654;28;20025;-64
2023/05/02 10:46:02;;;;;;;17.55;10.93;;;17.80;99.90;;;;;;10148298;28;20098;-62
2023/05/02 10:51:00;;;;;;;16.48;9.88;;;17.80;99.90;;;;;;10138995;28;20035;-64
2023/05/02 10:56:25;;;;;;;17.85;10.15;;;18.00;99.90;;;;;;10125511;28;20111;-65
2023/05/02 11:01:28;;;;;;;13.93;9.37;;;18.10;99.90;;;;;;10103774;28;20425;-62
2023/05/02 11:06:18;;;;;;;15.10;9.52;;;17.90;99.90;;;;;;10121154;28;20433;-62
2023/05/02 11:11:37;;;;;;;16.27;10.38;;;18.20;99.90;;;;;;10139140;28;20078;-62
2023/05/02 11:16:56;;;;;;;14.57;9.13;;;18.80;99.60;;;;;;10138562;28;20031;-62
2023/05/02 11:21:47;;;;;;;11.40;8.07;;;18.80;99.40;;;;;;10126459;28;20020;-62
2023/05/02 11:26:37;;;;;;;14.38;8.57;;;18.70;99.50;;;;;;10135819;28;20139;-63
2023/05/02 11:31:28;;;;;;;14.48;7.22;;;18.80;99.50;;;;;;10142726;28;20028;-62
2023/05/02 11:36:28;;;;;;;13.00;7.75;;;18.80;99.10;;;;;;10134069;28;20405;-64
2023/05/02 11:41:19;;;;;;;13.70;8.40;;;18.70;99.10;;;;;;10150318;28;20020;-63
2023/05/02 11:46:10;;;;;;;16.50;9.38;;;18.60;98.90;;;;;;10139510;28;20269;-68
2023/05/02 11:51:03;;;;;;;21.50;9.55;;;18.70;98.80;;;;;;10144878;28;20052;-64
2023/05/02 11:55:59;;;;;;;11.98;8.50;;;18.60;98.50;;;;;;10118004;28;20086;-61
2023/05/02 12:00:51;;;;;;;10.43;6.90;;;19.20;98.30;;;;;;10137481;28;20033;-63
2023/05/02 12:05:42;;;;;;;9.25;6.78;;;19.80;97.90;;;;;;10137234;28;20028;-64
2023/05/02 12:10:37;;;;;;;10.13;6.78;;;19.90;97.50;;;;;;10126497;28;20028;-63
2023/05/02 12:15:27;;;;;;;11.70;6.95;;;20.00;97.50;;;;;;10141196;28;20028;-62
2023/05/02 12:20:18;;;;;;;13.27;8.35;;;19.30;97.60;;;;;;10147117;28;20028;-63
2023/05/02 12:25:09;;;;;;;11.70;7.68;;;18.80;97.70;;;;;;10162051;28;20093;-62
2023/05/02 12:30:00;;;;;;;10.50;7.00;;;18.70;97.60;;;;;;10168451;28;20633;-63
2023/05/02 12:34:51;;;;;;;10.45;7.82;;;18.60;97.60;;;;;;10157346;28;20039;-63
2023/05/02 12:39:42;;;;;;;10.43;7.10;;;18.80;97.50;;;;;;10180513;28;20032;-63
2023/05/02 12:44:40;;;;;;;11.57;7.93;;;18.80;97.50;;;;;;10128358;28;20575;-64
2023/05/02 12:49:30;;;;;;;12.57;8.40;;;19.40;97.50;;;;;;10152199;28;20052;-63
2023/05/02 12:54:21;;;;;;;14.57;8.73;;;19.10;97.50;;;;;;10158746;28;20043;-64
2023/05/02 12:59:31;;;;;;;13.90;9.15;;;18.90;97.50;;;;;;10146160;28;20029;-61
2023/05/02 13:04:39;;;;;;;13.30;7.93;;;19.10;96.90;;;;;;10141579;28;20040;-62
2023/05/02 13:09:31;;;;;;;12.77;8.07;;;19.60;96.60;;;;;;10151699;28;20497;-65
2023/05/02 13:14:21;;;;;;;11.88;7.75;;;18.90;97.30;;;;;;10151456;28;20386;-62
2023/05/02 13:19:12;;;;;;;14.68;8.05;;;18.50;97.80;;;;;;10156858;28;20040;-61
2023/05/02 13:24:03;;;;;;;12.10;8.50;;;18.50;97.90;;;;;;10149107;28;20390;-62
2023/05/02 13:28:55;;;;;;;15.38;10.45;;;19.10;97.80;;;;;;10143423;28;20036;-62
2023/05/02 13:33:45;;;;;;;18.05;10.57;;;19.90;97.60;;;;;;10155680;28;20024;-63
2023/05/02 13:38:36;;;;;;;18.40;11.68;;;19.90;98.00;;;;;;10162366;28;20059;-63
2023/05/02 13:43:26;;;;;;;16.67;11.27;;;22.30;97.80;;;;;;10154278;28;20070;-61
2023/05/02 13:48:17;;;;;;;14.15;10.82;;;24.60;96.50;;;;;;10150130;28;20053;-63
2023/05/02 13:53:08;;;;;;;14.82;10.65;;;25.40;96.40;;;;;;10155015;28;20024;-64
2023/05/02 13:57:59;;;;;;;13.80;9.60;;;26.80;95.90;;;;;;10152921;28;20482;-60
2023/05/02 14:02:49;;;;;;;10.00;7.32;;;27.10;95.40;;;;;;10157029;28;20037;-62
2023/05/02 14:07:41;;;;;;;8.80;6.47;;;26.70;95.00;;;;;;10163938;28;20144;-62
2023/05/02 14:12:32;;;;;;;8.93;6.68;;;26.60;94.40;;;;;;10166838;28;20028;-62
2023/05/02 14:17:26;;;;;;;8.82;6.63;;;27.00;93.90;;;;;;10149811;28;20493;-63
2023/05/02 14:22:16;;;;;;;8.57;6.75;;;26.00;93.00;;;;;;10152782;28;20025;-63
2023/05/02 14:27:11;;;;;;;6.90;5.70;;;26.50;92.60;;;;;;10143115;28;20036;-62
2023/05/02 14:32:02;;;;;;;5.80;5.07;;;27.00;91.60;;;;;;10151965;28;20043;-63
2023/05/02 14:36:53;;;;;;;6.18;5.28;;;25.90;91.40;;;;;;10153569;28;20027;-61
2023/05/02 14:41:43;;;;;;;4.95;4.45;;;25.30;91.10;;;;;;10127709;28;20032;-62
2023/05/02 14:46:34;;;;;;;5.68;4.28;;;25.60;90.20;;;;;;10126447;28;20037;-62
2023/05/02 14:51:25;;;;;;;6.45;4.07;;;26.50;89.00;;;;;;10133505;28;20511;-62
2023/05/02 14:56:17;;;;;;;4.47;3.80;;;27.00;86.90;;;;;;10128225;28;20039;-60
2023/05/02 15:01:17;;;;;;;5.18;3.70;;;26.80;84.90;;;;;;10136914;28;20016;-63
2023/05/02 15:06:08;;;;;;;4.40;3.90;;;26.90;81.20;;;;;;10124467;28;20421;-64
2023/05/02 15:10:59;;;;;;;4.78;3.78;;;27.40;82.60;;;;;;10128992;28;20091;-64
2023/05/02 15:15:49;;;;;;;6.63;4.57;;;27.20;80.90;;;;;;10129294;28;20033;-62
2023/05/02 15:20:40;;;;;;;4.32;3.17;;;27.50;80.30;;;;;;10129596;28;20028;-62
2023/05/02 15:25:31;;;;;;;3.88;3.28;;;27.80;78.70;;;;;;10120880;28;20033;-63
2023/05/02 15:30:21;;;;;;;4.22;3.47;;;27.60;78.00;;;;;;10123058;28;20025;-64
2023/05/02 15:35:12;;;;;;;4.78;3.30;;;28.20;76.70;;;;;;10124936;28;20114;-66
2023/05/02 15:40:03;;;;;;;5.75;4.10;;;25.80;77.20;;;;;;10165472;28;20254;-66
2023/05/02 15:44:54;;;;;;;4.43;3.97;;;23.80;78.60;;;;;;10169274;28;20044;-66
2023/05/02 15:49:44;;;;;;;5.30;3.88;;;24.70;77.00;;;;;;10147065;28;20045;-66
2023/05/02 15:54:36;;;;;;;5.95;4.25;;;25.40;76.50;;;;;;10135678;28;20017;-71
2023/05/02 15:59:27;;;;;;;5.20;4.13;;;26.90;74.80;;;;;;10122959;28;20475;-70
2023/05/02 16:04:17;;;;;;;4.75;3.97;;;25.70;75.20;;;;;;10132977;28;20032;-68
2023/05/02 16:09:08;;;;;;;6.55;4.10;;;27.60;73.80;;;;;;10139253;28;20163;-68
2023/05/02 16:13:59;;;;;;;5.40;4.00;;;28.90;72.20;;;;;;10115707;28;20047;-65
2023/05/02 16:18:50;;;;;;;8.82;4.88;;;28.40;71.60;;;;;;10129894;28;20061;-69
2023/05/02 16:23:40;;;;;;;5.28;4.28;;;29.40;71.60;;;;;;10134392;28;20033;-65
2023/05/02 16:28:31;;;;;;;12.82;3.97;;;28.60;70.20;;;;;;10141071;28;20037;-67
2023/05/02 16:33:22;;;;;;;6.32;4.43;;;26.00;73.40;;;;;;10132113;28;20020;-67
2023/05/02 16:38:12;;;;;;;4.72;3.55;;;27.00;71.80;;;;;;10133608;28;20017;-63
2023/05/02 16:43:03;;;;;;;8.43;4.53;;;28.40;70.20;;;;;;10154869;28;20033;-68
2023/05/02 16:47:54;;;;;;;5.53;3.88;;;28.30;70.20;;;;;;10128273;28;20035;-66
2023/05/02 16:52:44;;;;;;;4.70;3.35;;;27.80;69.90;;;;;;10134261;28;20035;-62
2023/05/02 16:57:35;;;;;;;6.82;3.75;;;27.20;70.40;;;;;;10154421;28;20136;-64
2023/05/02 17:02:26;;;;;;;4.75;3.60;;;27.20;70.00;;;;;;10160340;28;20025;-63
2023/05/02 17:07:16;;;;;;;7.15;4.07;;;26.70;69.90;;;;;;10140827;28;20498;-60
2023/05/02 17:12:11;;;;;;;5.85;4.28;;;27.50;68.80;;;;;;10132850;28;20029;-60
2023/05/02 17:17:02;;;;;;;3.80;3.10;;;28.10;67.70;;;;;;10132145;28;20430;-60
2023/05/02 17:21:53;;;;;;;4.35;3.55;;;26.90;68.40;;;;;;10116600;28;20027;-58
2023/05/02 17:26:44;;;;;;;4.35;2.88;;;26.00;68.80;;;;;;10128586;28;20391;-60
2023/05/02 17:31:34;;;;;;;6.38;3.35;;;25.80;69.10;;;;;;10126239;28;20055;-60
2023/05/02 17:36:25;;;;;;;6.03;3.53;;;23.90;70.70;;;;;;10114009;28;20029;-62
2023/05/02 17:41:16;;;;;;;5.97;3.25;;;22.60;71.90;;;;;;10137505;28;20390;-61
2023/05/02 17:46:08;;;;;;;4.65;2.70;;;21.80;72.30;;;;;;10155444;28;20036;-61
2023/05/02 17:51:00;;;;;;;4.97;2.83;;;21.10;72.80;;;;;;10142541;28;20049;-62
2023/05/02 17:55:51;;;;;;;5.65;3.08;;;20.70;73.20;;;;;;10146654;28;20032;-64
2023/05/02 18:00:42;;;;;;;6.15;3.03;;;20.80;73.20;;;;;;10120755;28;20040;-60
2023/05/02 18:05:37;;;;;;;5.53;3.30;;;20.70;73.00;;;;;;10158895;28;20043;-59
2023/05/02 18:10:28;;;;;;;6.10;3.33;;;20.70;73.20;;;;;;10134802;28;20059;-60
2023/05/02 18:15:19;;;;;;;6.60;4.68;;;20.60;73.50;;;;;;10131721;28;20028;-61
2023/05/02 18:20:09;;;;;;;7.97;4.43;;;20.50;73.60;;;;;;10148368;28;20159;-68
2023/05/02 18:25:00;;;;;;;15.25;8.50;;;20.40;74.10;;;;;;10148302;28;20040;-65
2023/05/02 18:29:53;;;;;;;8.77;5.18;;;20.30;74.60;;;;;;10136715;28;20021;-60
2023/05/02 18:34:43;;;;;;;5.00;3.20;;;20.20;75.00;;;;;;10135946;28;20021;-64
2023/05/02 18:39:35;;;;;;;6.82;4.00;;;20.10;75.30;;;;;;10144479;28;20504;-60
2023/05/02 18:44:25;;;;;;;5.80;3.67;;;19.90;75.80;;;;;;10134431;28;20469;-58
2023/05/02 18:49:16;;;;;;;4.75;2.45;;;19.70;76.40;;;;;;10144297;28;20064;-62
2023/05/02 18:54:06;;;;;;;3.38;2.20;;;19.50;76.70;;;;;;10137104;28;20304;-59
2023/05/02 18:58:57;;;;;;;3.92;2.22;;;19.30;77.10;;;;;;10138310;28;20035;-64
2023/05/02 19:03:48;;;;;;;5.90;2.03;;;19.00;77.60;;;;;;10139903;28;20020;-59
2023/05/02 19:08:39;;;;;;;3.60;2.40;;;18.80;78.10;;;;;;10131344;28;20170;-59
2023/05/02 19:13:31;;;;;;;3.90;2.42;;;18.60;78.50;;;;;;10126838;28;20029;-60
2023/05/02 19:18:22;;;;;;;13.70;7.75;;;18.60;78.70;;;;;;10128901;28;20013;-60
2023/05/02 19:23:12;;;;;;;6.30;3.20;;;18.50;78.90;;;;;;10127419;28;20567;-60
2023/05/02 19:28:03;;;;;;;4.47;2.83;;;18.40;79.20;;;;;;10128518;28;20091;-58
2023/05/02 19:32:54;;;;;;;4.35;2.60;;;18.20;79.50;;;;;;10126471;28;20473;-62
2023/05/02 19:37:45;;;;;;;4.45;2.15;;;18.20;79.80;;;;;;10127712;28;20024;-61
2023/05/02 19:42:36;;;;;;;3.50;2.42;;;18.00;80.40;;;;;;10134285;28;20119;-57
2023/05/02 19:47:27;;;;;;;3.92;2.40;;;17.90;80.70;;;;;;10124214;28;20119;-62
2023/05/02 19:52:17;;;;;;;6.85;2.00;;;17.90;80.80;;;;;;10132188;28;20147;-60
2023/05/02 19:57:08;;;;;;;3.15;2.20;;;17.70;81.30;;;;;;10156531;28;20028;-60
2023/05/02 20:01:59;;;;;;;5.78;2.03;;;17.70;81.60;;;;;;10141873;28;20036;-60
2023/05/02 20:06:50;;;;;;;4.57;2.60;;;17.60;82.00;;;;;;10123289;28;20375;-62
2023/05/02 20:11:41;;;;;;;2.75;2.13;;;17.50;82.30;;;;;;10133742;28;20426;-62
2023/05/02 20:16:31;;;;;;;4.78;2.00;;;17.50;82.40;;;;;;10123807;28;20155;-59
2023/05/02 20:21:22;;;;;;;3.53;1.90;;;17.40;82.90;;;;;;10126512;28;20032;-63
2023/05/02 20:26:15;;;;;;;2.58;1.98;;;17.30;83.20;;;;;;10129695;28;20028;-61
2023/05/02 20:31:05;;;;;;;5.50;2.15;;;17.20;83.60;;;;;;10151153;28;20080;-61
2023/05/02 20:35:56;;;;;;;2.55;1.98;;;16.90;84.50;;;;;;10146361;28;20106;-63
2023/05/02 20:40:47;;;;;;;4.85;2.58;;;16.70;85.00;;;;;;10173705;28;20025;-63
2023/05/02 20:45:38;;;;;;;5.53;2.30;;;16.50;85.80;;;;;;10157045;28;20493;-60
2023/05/02 20:50:29;;;;;;;3.33;2.30;;;16.40;85.80;;;;;;10139416;28;20036;-61
2023/05/02 20:55:21;;;;;;;4.55;3.35;;;16.50;85.80;;;;;;10134514;28;20078;-61
2023/05/02 21:00:13;;;;;;;4.90;2.50;;;16.40;85.80;;;;;;10131780;28;20166;-62
2023/05/02 21:05:03;;;;;;;3.28;2.63;;;16.30;86.00;;;;;;10132465;28;20048;-60
2023/05/02 21:09:54;;;;;;;3.78;2.65;;;16.30;86.10;;;;;;10135539;28;20024;-60
2023/05/02 21:14:45;;;;;;;5.10;2.85;;;16.10;86.40;;;;;;10133089;28;20048;-66
2023/05/02 21:19:36;;;;;;;4.88;2.80;;;16.10;86.40;;;;;;10134210;28;20024;-65
2023/05/02 21:24:27;;;;;;;5.60;2.80;;;16.00;86.70;;;;;;10133351;28;20028;-66
2023/05/02 21:29:17;;;;;;;4.38;3.03;;;15.70;87.30;;;;;;10129151;28;20104;-64
2023/05/02 21:34:08;;;;;;;5.55;2.58;;;15.60;87.50;;;;;;10133517;28;20164;-67
2023/05/02 21:38:58;;;;;;;6.03;2.97;;;15.60;87.50;;;;;;10138637;28;20487;-63
2023/05/02 21:43:49;;;;;;;5.28;3.35;;;15.50;87.50;;;;;;10119985;28;20441;-64
2023/05/02 21:48:40;;;;;;;4.32;3.15;;;15.40;87.90;;;;;;10138113;28;20060;-63
2023/05/02 21:53:31;;;;;;;6.03;3.10;;;15.40;88.00;;;;;;10121262;28;20039;-64
2023/05/02 21:58:21;;;;;;;5.75;3.20;;;15.30;88.30;;;;;;10144269;28;20409;-64
2023/05/02 22:03:12;;;;;;;3.88;2.85;;;15.10;88.30;;;;;;10152828;28;20016;-64
2023/05/02 22:08:03;;;;;;;4.25;3.15;;;15.30;87.90;;;;;;10133882;28;20173;-60
2023/05/02 22:12:55;;;;;;;4.68;2.67;;;15.30;88.00;;;;;;10178271;28;20030;-60
2023/05/02 22:17:47;;;;;;;10.25;3.13;;;15.10;88.30;;;;;;10158328;28;20115;-63
2023/05/02 22:22:38;;;;;;;3.58;3.03;;;15.00;88.70;;;;;;10145320;28;20111;-65
2023/05/02 22:27:29;;;;;;;4.53;3.25;;;15.00;88.70;;;;;;10128697;28;20102;-63
2023/05/02 22:32:21;;;;;;;4.13;2.70;;;14.80;89.00;;;;;;10155481;28;20033;-65
2023/05/02 22:37:11;;;;;;;6.07;3.33;;;14.80;89.20;;;;;;10138078;28;20062;-64
2023/05/02 22:42:02;;;;;;;4.72;2.97;;;14.80;88.90;;;;;;10136872;28;20557;-59
2023/05/02 22:46:53;;;;;;;6.30;3.08;;;14.60;89.30;;;;;;10163147;28;20121;-64
2023/05/02 22:51:45;;;;;;;3.45;2.83;;;14.50;89.70;;;;;;10142390;28;20037;-64
2023/05/02 22:56:35;;;;;;;6.60;3.33;;;14.30;89.90;;;;;;10157821;28;20702;-66
2023/05/02 23:01:27;;;;;;;5.35;3.53;;;14.20;90.10;;;;;;10163012;28;20107;-63
2023/05/02 23:06:17;;;;;;;4.38;3.05;;;14.10;90.20;;;;;;10138886;28;20032;-63
2023/05/02 23:11:08;;;;;;;5.93;3.20;;;14.00;90.40;;;;;;10137674;28;20123;-64
2023/05/02 23:15:58;;;;;;;4.25;2.92;;;13.90;90.50;;;;;;10143339;28;20031;-62
2023/05/02 23:20:49;;;;;;;4.28;3.05;;;13.90;90.40;;;;;;10142735;28;20020;-60
2023/05/02 23:25:40;;;;;;;9.32;3.45;;;13.80;90.50;;;;;;10140760;28;20256;-61
2023/05/02 23:30:31;;;;;;;4.30;3.50;;;13.70;90.80;;;;;;10150887;28;20040;-61
2023/05/02 23:35:22;;;;;;;4.63;3.10;;;13.50;90.90;;;;;;10130934;28;20024;-62
2023/05/02 23:40:13;;;;;;;7.70;3.53;;;13.50;90.90;;;;;;10169935;28;20024;-64
2023/05/02 23:45:04;;;;;;;4.28;3.08;;;13.50;91.10;;;;;;10144943;28;20040;-61
2023/05/02 23:49:55;;;;;;;4.95;3.17;;;13.20;91.20;;;;;;10167774;28;20044;-61
2023/05/02 23:54:45;;;;;;;5.28;2.97;;;13.30;91.10;;;;;;10139495;28;20035;-60
2023/05/02 23:59:36;;;;;;;8.35;3.65;;;13.30;91.20;;;;;;10124509;28;20124;-63
